sensor_id;sensor_type;location;lat;lon;timestamp;pressure;altitude;pressure_sealevel;temperature;humidity
9415;BME280;4746;35.664;139.738;2024-01-06T00:00:44;100257.16;;;14.82;41.99
9415;BME280;4746;35.664;139.738;2024-01-06T00:03:12;100244.16;;;14.93;41.75
9415;BME280;4746;35.664;139.738;2024-01-06T00:05:41;100255.22;;;15.02;41.59
9415;BME280;4746;35.664;139.738;2024-01-06T00:08:08;100256.00;;;15.13;41.84
9415;BME280;4746;35.664;139.738;2024-01-06T00:10:36;100255.91;;;15.22;40.63
9415;BME280;4746;35.664;139.738;2024-01-06T00:13:03;100246.44;;;15.24;40.70
9415;BME280;4746;35.664;139.738;2024-01-06T00:15:31;100240.41;;;15.25;40.56
9415;BME280;4746;35.664;139.738;2024-01-06T00:17:59;100240.31;;;15.31;40.64
9415;BME280;4746;35.664;139.738;2024-01-06T00:20:29;100245.41;;;15.37;40.67
9415;BME280;4746;35.664;139.738;2024-01-06T00:22:57;100239.28;;;15.45;40.77
9415;BME280;4746;35.664;139.738;2024-01-06T00:25:25;100239.94;;;15.61;40.36
9415;BME280;4746;35.664;139.738;2024-01-06T00:27:54;100236.38;;;15.71;39.90
9415;BME280;4746;35.664;139.738;2024-01-06T00:30:22;100231.13;;;15.77;39.88
9415;BME280;4746;35.664;139.738;2024-01-06T00:32:50;100224.97;;;15.84;39.47
9415;BME280;4746;35.664;139.738;2024-01-06T00:35:17;100224.94;;;15.87;39.72
9415;BME280;4746;35.664;139.738;2024-01-06T00:37:45;100229.19;;;15.91;38.87
9415;BME280;4746;35.664;139.738;2024-01-06T00:40:13;100221.38;;;15.95;38.94
9415;BME280;4746;35.664;139.738;2024-01-06T00:42:40;100223.91;;;15.99;39.10
9415;BME280;4746;35.664;139.738;2024-01-06T00:45:08;100213.50;;;16.02;39.04
9415;BME280;4746;35.664;139.738;2024-01-06T00:47:36;100214.31;;;16.06;38.72
9415;BME280;4746;35.664;139.738;2024-01-06T00:50:04;100203.91;;;16.10;38.89
9415;BME280;4746;35.664;139.738;2024-01-06T00:52:32;100197.00;;;16.11;38.63
9415;BME280;4746;35.664;139.738;2024-01-06T00:54:59;100196.09;;;16.13;39.00
9415;BME280;4746;35.664;139.738;2024-01-06T00:57:27;100189.19;;;16.15;38.67
9415;BME280;4746;35.664;139.738;2024-01-06T00:59:56;100179.59;;;16.22;38.63
9415;BME280;4746;35.664;139.738;2024-01-06T01:02:24;100182.09;;;16.29;38.86
9415;BME280;4746;35.664;139.738;2024-01-06T01:04:51;100175.94;;;16.38;38.20
9415;BME280;4746;35.664;139.738;2024-01-06T01:07:20;100172.41;;;16.42;38.52
9415;BME280;4746;35.664;139.738;2024-01-06T01:09:47;100171.47;;;16.47;38.29
9415;BME280;4746;35.664;139.738;2024-01-06T01:12:17;100171.34;;;16.53;38.34
9415;BME280;4746;35.664;139.738;2024-01-06T01:14:44;100173.03;;;16.54;38.29
9415;BME280;4746;35.664;139.738;2024-01-06T01:17:14;100169.56;;;16.55;37.92
9415;BME280;4746;35.664;139.738;2024-01-06T01:19:42;100157.50;;;16.54;37.94
9415;BME280;4746;35.664;139.738;2024-01-06T01:22:09;100150.56;;;16.58;38.20
9415;BME280;4746;35.664;139.738;2024-01-06T01:24:37;100143.56;;;16.64;37.72
9415;BME280;4746;35.664;139.738;2024-01-06T01:27:05;100136.56;;;16.69;37.67
9415;BME280;4746;35.664;139.738;2024-01-06T01:29:32;100125.25;;;16.73;37.68
9415;BME280;4746;35.664;139.738;2024-01-06T01:32:00;100129.47;;;16.78;37.56
9415;BME280;4746;35.664;139.738;2024-01-06T01:34:27;100109.56;;;16.80;37.51
9415;BME280;4746;35.664;139.738;2024-01-06T01:36:55;100114.63;;;16.88;37.35
9415;BME280;4746;35.664;139.738;2024-01-06T01:39:22;100098.00;;;16.98;37.69
9415;BME280;4746;35.664;139.738;2024-01-06T01:41:50;100094.25;;;17.12;37.27
9415;BME280;4746;35.664;139.738;2024-01-06T01:44:17;100094.91;;;17.22;37.16
9415;BME280;4746;35.664;139.738;2024-01-06T01:46:45;100086.16;;;17.29;36.46
9415;BME280;4746;35.664;139.738;2024-01-06T01:49:13;100077.53;;;17.28;36.86
9415;BME280;4746;35.664;139.738;2024-01-06T01:51:43;100083.31;;;17.41;36.75
9415;BME280;4746;35.664;139.738;2024-01-06T01:54:11;100071.84;;;17.50;36.26
9415;BME280;4746;35.664;139.738;2024-01-06T01:56:43;100063.81;;;17.61;36.33
9415;BME280;4746;35.664;139.738;2024-01-06T01:59:15;100066.00;;;17.77;36.26
9415;BME280;4746;35.664;139.738;2024-01-06T02:01:44;100061.38;;;17.88;35.94
9415;BME280;4746;35.664;139.738;2024-01-06T02:04:13;100050.81;;;17.97;35.58
9415;BME280;4746;35.664;139.738;2024-01-06T02:06:40;100052.19;;;18.10;35.49
9415;BME280;4746;35.664;139.738;2024-01-06T02:09:08;100042.47;;;18.18;35.25
9415;BME280;4746;35.664;139.738;2024-01-06T02:11:35;100035.38;;;18.26;34.87
9415;BME280;4746;35.664;139.738;2024-01-06T02:14:03;100034.28;;;18.34;35.00
9415;BME280;4746;35.664;139.738;2024-01-06T02:16:30;100014.59;;;18.58;35.02
9415;BME280;4746;35.664;139.738;2024-01-06T02:18:59;100014.81;;;18.79;34.24
9415;BME280;4746;35.664;139.738;2024-01-06T02:21:31;100014.78;;;18.81;33.60
9415;BME280;4746;35.664;139.738;2024-01-06T02:24:00;100007.06;;;18.78;33.69
9415;BME280;4746;35.664;139.738;2024-01-06T02:26:28;99997.56;;;18.77;33.48
9415;BME280;4746;35.664;139.738;2024-01-06T02:28:56;100002.69;;;18.80;33.41
9415;BME280;4746;35.664;139.738;2024-01-06T02:31:23;99992.31;;;18.80;33.25
9415;BME280;4746;35.664;139.738;2024-01-06T02:33:50;99981.03;;;18.81;33.34
9415;BME280;4746;35.664;139.738;2024-01-06T02:36:18;99974.19;;;19.05;33.44
9415;BME280;4746;35.664;139.738;2024-01-06T02:38:46;99975.09;;;19.32;33.02
9415;BME280;4746;35.664;139.738;2024-01-06T02:41:13;99965.81;;;19.51;32.74
9415;BME280;4746;35.664;139.738;2024-01-06T02:43:41;99959.06;;;19.71;32.47
9415;BME280;4746;35.664;139.738;2024-01-06T02:46:08;99948.91;;;19.89;31.98
9415;BME280;4746;35.664;139.738;2024-01-06T02:48:36;99945.50;;;20.12;31.74
9415;BME280;4746;35.664;139.738;2024-01-06T02:51:03;99930.78;;;20.35;31.37
9415;BME280;4746;35.664;139.738;2024-01-06T02:53:31;99934.72;;;20.45;31.08
9415;BME280;4746;35.664;139.738;2024-01-06T02:55:58;99933.75;;;20.47;30.84
9415;BME280;4746;35.664;139.738;2024-01-06T02:58:26;99926.28;;;20.61;30.61
9415;BME280;4746;35.664;139.738;2024-01-06T03:00:53;99924.81;;;20.77;30.25
9415;BME280;4746;35.664;139.738;2024-01-06T03:03:21;99914.81;;;20.88;30.42
9415;BME280;4746;35.664;139.738;2024-01-06T03:05:48;99916.78;;;21.04;30.33
9415;BME280;4746;35.664;139.738;2024-01-06T03:08:16;99905.00;;;21.16;29.93
9415;BME280;4746;35.664;139.738;2024-01-06T03:10:44;99900.25;;;21.25;29.43
9415;BME280;4746;35.664;139.738;2024-01-06T03:13:11;99906.09;;;21.32;29.08
9415;BME280;4746;35.664;139.738;2024-01-06T03:15:39;99898.66;;;21.43;29.18
9415;BME280;4746;35.664;139.738;2024-01-06T03:18:06;99888.00;;;21.49;29.28
9415;BME280;4746;35.664;139.738;2024-01-06T03:20:35;99881.56;;;21.57;29.05
9415;BME280;4746;35.664;139.738;2024-01-06T03:23:03;99875.09;;;21.66;28.99
9415;BME280;4746;35.664;139.738;2024-01-06T03:25:30;99871.59;;;22.05;28.46
9415;BME280;4746;35.664;139.738;2024-01-06T03:27:58;99860.38;;;22.76;27.52
9415;BME280;4746;35.664;139.738;2024-01-06T03:30:25;99858.59;;;23.30;26.50
9415;BME280;4746;35.664;139.738;2024-01-06T03:32:53;99857.06;;;23.60;26.03
9415;BME280;4746;35.664;139.738;2024-01-06T03:35:20;99858.72;;;23.95;26.12
9415;BME280;4746;35.664;139.738;2024-01-06T03:37:48;99855.13;;;24.28;25.45
9415;BME280;4746;35.664;139.738;2024-01-06T03:40:17;99847.66;;;24.53;25.46
9415;BME280;4746;35.664;139.738;2024-01-06T03:42:46;99843.25;;;24.69;25.20
9415;BME280;4746;35.664;139.738;2024-01-06T03:45:14;99839.31;;;24.47;24.80
9415;BME280;4746;35.664;139.738;2024-01-06T03:47:41;99836.47;;;24.19;25.25
9415;BME280;4746;35.664;139.738;2024-01-06T03:50:12;99825.09;;;24.03;25.67
9415;BME280;4746;35.664;139.738;2024-01-06T03:52:39;99823.69;;;23.97;25.07
9415;BME280;4746;35.664;139.738;2024-01-06T03:55:08;99809.13;;;25.15;24.70
9415;BME280;4746;35.664;139.738;2024-01-06T03:57:35;99798.22;;;27.39;22.45
9415;BME280;4746;35.664;139.738;2024-01-06T04:00:04;99790.41;;;29.41;20.22
9415;BME280;4746;35.664;139.738;2024-01-06T04:02:32;99790.16;;;30.75;19.42
9415;BME280;4746;35.664;139.738;2024-01-06T04:04:59;99789.66;;;31.73;18.54
9415;BME280;4746;35.664;139.738;2024-01-06T04:07:27;99782.44;;;32.44;17.72
9415;BME280;4746;35.664;139.738;2024-01-06T04:09:54;99783.94;;;32.96;17.46
9415;BME280;4746;35.664;139.738;2024-01-06T04:12:22;99782.22;;;33.70;17.38
9415;BME280;4746;35.664;139.738;2024-01-06T04:14:49;99774.38;;;34.32;16.24
9415;BME280;4746;35.664;139.738;2024-01-06T04:17:17;99775.19;;;35.03;16.18
9415;BME280;4746;35.664;139.738;2024-01-06T04:19:44;99776.66;;;35.58;15.08
9415;BME280;4746;35.664;139.738;2024-01-06T04:22:12;99775.41;;;35.78;14.97
9415;BME280;4746;35.664;139.738;2024-01-06T04:24:40;99769.44;;;35.76;15.22
9415;BME280;4746;35.664;139.738;2024-01-06T04:27:07;99760.47;;;35.85;14.67
9415;BME280;4746;35.664;139.738;2024-01-06T04:29:36;99752.13;;;35.37;14.79
9415;BME280;4746;35.664;139.738;2024-01-06T04:32:04;99750.69;;;35.00;14.92
9415;BME280;4746;35.664;139.738;2024-01-06T04:34:31;99759.06;;;35.30;15.10
9415;BME280;4746;35.664;139.738;2024-01-06T04:36:59;99749.75;;;36.10;14.09
9415;BME280;4746;35.664;139.738;2024-01-06T04:39:26;99746.16;;;37.00;14.31
9415;BME280;4746;35.664;139.738;2024-01-06T04:41:54;99738.91;;;37.88;13.19
9415;BME280;4746;35.664;139.738;2024-01-06T04:44:22;99737.16;;;38.41;12.98
9415;BME280;4746;35.664;139.738;2024-01-06T04:46:49;99731.84;;;38.86;12.69
9415;BME280;4746;35.664;139.738;2024-01-06T04:49:17;99733.97;;;39.35;12.65
9415;BME280;4746;35.664;139.738;2024-01-06T04:51:44;99724.59;;;39.31;12.25
9415;BME280;4746;35.664;139.738;2024-01-06T04:54:12;99725.31;;;39.47;12.36
9415;BME280;4746;35.664;139.738;2024-01-06T04:56:39;99727.63;;;39.79;11.81
9415;BME280;4746;35.664;139.738;2024-01-06T04:59:07;99716.72;;;40.45;11.29
9415;BME280;4746;35.664;139.738;2024-01-06T05:01:35;99722.13;;;40.86;11.56
9415;BME280;4746;35.664;139.738;2024-01-06T05:04:02;99716.22;;;40.97;11.31
9415;BME280;4746;35.664;139.738;2024-01-06T05:06:30;99713.31;;;41.13;10.91
9415;BME280;4746;35.664;139.738;2024-01-06T05:08:57;99718.16;;;41.24;10.92
9415;BME280;4746;35.664;139.738;2024-01-06T05:11:25;99706.19;;;41.26;11.15
9415;BME280;4746;35.664;139.738;2024-01-06T05:13:52;99707.94;;;41.40;10.96
9415;BME280;4746;35.664;139.738;2024-01-06T05:16:21;99703.31;;;41.62;10.57
9415;BME280;4746;35.664;139.738;2024-01-06T05:18:49;99696.38;;;42.20;10.55
9415;BME280;4746;35.664;139.738;2024-01-06T05:21:16;99698.66;;;43.09;10.23
9415;BME280;4746;35.664;139.738;2024-01-06T05:23:44;99699.06;;;43.57;10.07
9415;BME280;4746;35.664;139.738;2024-01-06T05:26:11;99698.00;;;43.58;9.31
9415;BME280;4746;35.664;139.738;2024-01-06T05:28:40;99702.56;;;43.64;9.61
9415;BME280;4746;35.664;139.738;2024-01-06T05:31:08;99694.06;;;44.17;9.37
9415;BME280;4746;35.664;139.738;2024-01-06T05:33:35;99689.53;;;44.49;9.07
9415;BME280;4746;35.664;139.738;2024-01-06T05:36:03;99684.09;;;44.55;9.06
9415;BME280;4746;35.664;139.738;2024-01-06T05:38:31;99682.25;;;44.80;9.19
9415;BME280;4746;35.664;139.738;2024-01-06T05:40:58;99683.28;;;45.10;9.11
9415;BME280;4746;35.664;139.738;2024-01-06T05:43:26;99668.53;;;45.30;8.69
9415;BME280;4746;35.664;139.738;2024-01-06T05:45:54;99679.72;;;45.58;8.67
9415;BME280;4746;35.664;139.738;2024-01-06T05:48:21;99680.69;;;45.63;8.50
9415;BME280;4746;35.664;139.738;2024-01-06T05:50:49;99674.00;;;45.66;8.58
9415;BME280;4746;35.664;139.738;2024-01-06T05:53:16;99668.59;;;45.84;8.21
9415;BME280;4746;35.664;139.738;2024-01-06T05:55:45;99665.28;;;45.64;8.52
9415;BME280;4746;35.664;139.738;2024-01-06T05:58:13;99670.25;;;45.67;8.36
9415;BME280;4746;35.664;139.738;2024-01-06T06:00:40;99663.47;;;45.40;8.61
9415;BME280;4746;35.664;139.738;2024-01-06T06:03:08;99658.25;;;45.14;8.69
9415;BME280;4746;35.664;139.738;2024-01-06T06:05:35;99660.91;;;45.45;8.47
9415;BME280;4746;35.664;139.738;2024-01-06T06:08:03;99651.25;;;45.49;7.93
9415;BME280;4746;35.664;139.738;2024-01-06T06:10:31;99651.38;;;44.94;8.50
9415;BME280;4746;35.664;139.738;2024-01-06T06:13:08;99653.03;;;44.88;8.70
9415;BME280;4746;35.664;139.738;2024-01-06T06:15:38;99652.88;;;44.59;8.55
9415;BME280;4746;35.664;139.738;2024-01-06T06:18:06;99656.75;;;44.39;8.91
9415;BME280;4746;35.664;139.738;2024-01-06T06:20:33;99648.00;;;44.43;8.53
9415;BME280;4746;35.664;139.738;2024-01-06T06:23:01;99651.41;;;44.32;8.56
9415;BME280;4746;35.664;139.738;2024-01-06T06:25:28;99645.94;;;44.39;8.55
9415;BME280;4746;35.664;139.738;2024-01-06T06:27:56;99639.66;;;44.45;8.82
9415;BME280;4746;35.664;139.738;2024-01-06T06:30:23;99634.88;;;44.40;8.85
9415;BME280;4746;35.664;139.738;2024-01-06T06:32:51;99639.03;;;44.06;8.72
9415;BME280;4746;35.664;139.738;2024-01-06T06:35:18;99641.63;;;43.75;9.11
9415;BME280;4746;35.664;139.738;2024-01-06T06:37:46;99640.25;;;43.59;8.89
9415;BME280;4746;35.664;139.738;2024-01-06T06:40:13;99640.28;;;43.34;8.68
9415;BME280;4746;35.664;139.738;2024-01-06T06:42:41;99635.16;;;43.13;8.99
9415;BME280;4746;35.664;139.738;2024-01-06T06:45:09;99638.88;;;42.99;9.39
9415;BME280;4746;35.664;139.738;2024-01-06T06:47:38;99631.38;;;42.56;9.53
9415;BME280;4746;35.664;139.738;2024-01-06T06:50:06;99629.69;;;42.35;9.42
9415;BME280;4746;35.664;139.738;2024-01-06T06:52:34;99625.69;;;42.18;9.78
9415;BME280;4746;35.664;139.738;2024-01-06T06:55:01;99629.56;;;41.96;9.87
9415;BME280;4746;35.664;139.738;2024-01-06T06:57:29;99631.28;;;41.36;10.50
9415;BME280;4746;35.664;139.738;2024-01-06T06:59:56;99637.31;;;40.42;10.60
9415;BME280;4746;35.664;139.738;2024-01-06T07:02:24;99635.75;;;39.48;11.23
9415;BME280;4746;35.664;139.738;2024-01-06T07:04:51;99643.06;;;39.03;11.08
9415;BME280;4746;35.664;139.738;2024-01-06T07:07:19;99635.72;;;38.60;11.99
9415;BME280;4746;35.664;139.738;2024-01-06T07:09:47;99628.63;;;37.92;11.96
9415;BME280;4746;35.664;139.738;2024-01-06T07:12:14;99632.72;;;37.18;12.25
9415;BME280;4746;35.664;139.738;2024-01-06T07:14:42;99633.75;;;36.46;13.29
9415;BME280;4746;35.664;139.738;2024-01-06T07:17:09;99637.84;;;35.67;13.58
9415;BME280;4746;35.664;139.738;2024-01-06T07:19:38;99645.56;;;34.94;14.27
9415;BME280;4746;35.664;139.738;2024-01-06T07:22:06;99636.81;;;34.15;14.63
9415;BME280;4746;35.664;139.738;2024-01-06T07:24:33;99634.53;;;33.39;14.69
9415;BME280;4746;35.664;139.738;2024-01-06T07:27:03;99631.09;;;32.55;15.82
9415;BME280;4746;35.664;139.738;2024-01-06T07:29:31;99639.25;;;31.57;16.11
9415;BME280;4746;35.664;139.738;2024-01-06T07:31:58;99633.19;;;30.54;17.22
9415;BME280;4746;35.664;139.738;2024-01-06T07:34:26;99634.88;;;29.49;17.90
9415;BME280;4746;35.664;139.738;2024-01-06T07:36:54;99638.50;;;28.58;18.78
9415;BME280;4746;35.664;139.738;2024-01-06T07:39:21;99640.66;;;27.70;19.41
9415;BME280;4746;35.664;139.738;2024-01-06T07:41:49;99637.06;;;26.98;20.07
9415;BME280;4746;35.664;139.738;2024-01-06T07:44:16;99642.19;;;26.36;20.94
9415;BME280;4746;35.664;139.738;2024-01-06T07:46:49;99642.91;;;25.86;21.57
9415;BME280;4746;35.664;139.738;2024-01-06T07:49:17;99641.38;;;25.41;22.08
9415;BME280;4746;35.664;139.738;2024-01-06T07:51:45;99636.84;;;25.02;22.69
9415;BME280;4746;35.664;139.738;2024-01-06T07:54:12;99635.75;;;24.62;22.68
9415;BME280;4746;35.664;139.738;2024-01-06T07:56:40;99640.47;;;24.27;23.62
9415;BME280;4746;35.664;139.738;2024-01-06T07:59:08;99649.31;;;23.95;23.76
9415;BME280;4746;35.664;139.738;2024-01-06T08:01:36;99654.50;;;23.64;24.57
9415;BME280;4746;35.664;139.738;2024-01-06T08:04:06;99658.53;;;23.39;25.22
9415;BME280;4746;35.664;139.738;2024-01-06T08:06:34;99656.34;;;23.14;25.37
9415;BME280;4746;35.664;139.738;2024-01-06T08:09:04;99654.06;;;22.92;26.55
9415;BME280;4746;35.664;139.738;2024-01-06T08:11:32;99659.47;;;22.72;26.31
9415;BME280;4746;35.664;139.738;2024-01-06T08:14:00;99662.09;;;22.55;26.95
9415;BME280;4746;35.664;139.738;2024-01-06T08:16:28;99654.22;;;22.38;26.86
9415;BME280;4746;35.664;139.738;2024-01-06T08:18:55;99656.78;;;22.21;27.43
9415;BME280;4746;35.664;139.738;2024-01-06T08:21:23;99660.22;;;22.05;27.47
9415;BME280;4746;35.664;139.738;2024-01-06T08:23:51;99649.81;;;21.86;27.63
9415;BME280;4746;35.664;139.738;2024-01-06T08:26:18;99652.38;;;21.69;28.17
9415;BME280;4746;35.664;139.738;2024-01-06T08:28:46;99660.00;;;21.56;28.03
9415;BME280;4746;35.664;139.738;2024-01-06T08:31:13;99665.47;;;21.50;28.45
9415;BME280;4746;35.664;139.738;2024-01-06T08:33:41;99671.06;;;21.41;28.67
9415;BME280;4746;35.664;139.738;2024-01-06T08:36:09;99664.59;;;21.31;28.95
9415;BME280;4746;35.664;139.738;2024-01-06T08:38:37;99670.19;;;21.22;28.70
9415;BME280;4746;35.664;139.738;2024-01-06T08:41:05;99674.28;;;21.09;28.98
9415;BME280;4746;35.664;139.738;2024-01-06T08:43:32;99675.53;;;21.00;29.13
9415;BME280;4746;35.664;139.738;2024-01-06T08:46:00;99679.31;;;20.94;29.40
9415;BME280;4746;35.664;139.738;2024-01-06T08:48:27;99677.94;;;20.85;29.03
9415;BME280;4746;35.664;139.738;2024-01-06T08:50:55;99678.31;;;20.76;29.66
9415;BME280;4746;35.664;139.738;2024-01-06T08:53:22;99674.22;;;20.71;29.67
9415;BME280;4746;35.664;139.738;2024-01-06T08:55:50;99672.84;;;20.62;30.06
9415;BME280;4746;35.664;139.738;2024-01-06T08:58:18;99674.06;;;20.54;30.26
9415;BME280;4746;35.664;139.738;2024-01-06T09:00:45;99678.66;;;20.47;30.43
9415;BME280;4746;35.664;139.738;2024-01-06T09:03:13;99675.59;;;20.38;30.67
9415;BME280;4746;35.664;139.738;2024-01-06T09:05:40;99673.44;;;20.27;30.59
9415;BME280;4746;35.664;139.738;2024-01-06T09:08:08;99664.19;;;20.21;30.99
9415;BME280;4746;35.664;139.738;2024-01-06T09:10:35;99659.34;;;20.12;31.28
9415;BME280;4746;35.664;139.738;2024-01-06T09:13:03;99659.72;;;20.03;31.12
9415;BME280;4746;35.664;139.738;2024-01-06T09:15:31;99668.66;;;19.96;31.57
9415;BME280;4746;35.664;139.738;2024-01-06T09:17:58;99659.38;;;19.89;31.83
9415;BME280;4746;35.664;139.738;2024-01-06T09:20:27;99657.88;;;19.83;31.84
9415;BME280;4746;35.664;139.738;2024-01-06T09:22:54;99653.75;;;19.78;32.23
9415;BME280;4746;35.664;139.738;2024-01-06T09:25:22;99651.38;;;19.72;32.25
9415;BME280;4746;35.664;139.738;2024-01-06T09:27:52;99642.84;;;19.68;32.38
9415;BME280;4746;35.664;139.738;2024-01-06T09:30:20;99649.16;;;19.63;32.95
9415;BME280;4746;35.664;139.738;2024-01-06T09:32:47;99651.91;;;19.58;32.97
9415;BME280;4746;35.664;139.738;2024-01-06T09:35:15;99659.88;;;19.54;32.97
9415;BME280;4746;35.664;139.738;2024-01-06T09:37:42;99660.00;;;19.51;33.14
9415;BME280;4746;35.664;139.738;2024-01-06T09:40:14;99658.31;;;19.50;33.04
9415;BME280;4746;35.664;139.738;2024-01-06T09:42:45;99652.47;;;19.44;33.62
9415;BME280;4746;35.664;139.738;2024-01-06T09:45:13;99657.75;;;19.42;33.56
9415;BME280;4746;35.664;139.738;2024-01-06T09:47:41;99662.13;;;19.40;33.74
9415;BME280;4746;35.664;139.738;2024-01-06T09:50:10;99664.97;;;19.34;33.64
9415;BME280;4746;35.664;139.738;2024-01-06T09:52:41;99653.06;;;19.29;34.14
9415;BME280;4746;35.664;139.738;2024-01-06T09:55:13;99650.63;;;19.24;34.15
9415;BME280;4746;35.664;139.738;2024-01-06T09:57:40;99657.88;;;19.16;34.56
9415;BME280;4746;35.664;139.738;2024-01-06T10:00:09;99652.91;;;19.10;34.67
9415;BME280;4746;35.664;139.738;2024-01-06T10:02:37;99658.22;;;19.06;34.62
9415;BME280;4746;35.664;139.738;2024-01-06T10:05:05;99649.69;;;19.02;34.86
9415;BME280;4746;35.664;139.738;2024-01-06T10:07:34;99660.16;;;18.99;34.75
9415;BME280;4746;35.664;139.738;2024-01-06T10:10:01;99654.34;;;18.93;35.17
9415;BME280;4746;35.664;139.738;2024-01-06T10:12:29;99646.72;;;18.88;35.39
9415;BME280;4746;35.664;139.738;2024-01-06T10:14:57;99650.34;;;18.84;35.26
9415;BME280;4746;35.664;139.738;2024-01-06T10:17:26;99639.31;;;18.78;35.10
9415;BME280;4746;35.664;139.738;2024-01-06T10:19:55;99638.59;;;18.75;35.54
9415;BME280;4746;35.664;139.738;2024-01-06T10:22:23;99636.97;;;18.71;35.47
9415;BME280;4746;35.664;139.738;2024-01-06T10:24:51;99636.28;;;18.66;35.81
9415;BME280;4746;35.664;139.738;2024-01-06T10:27:19;99643.38;;;18.61;35.91
9415;BME280;4746;35.664;139.738;2024-01-06T10:29:51;99652.06;;;18.60;35.85
9415;BME280;4746;35.664;139.738;2024-01-06T10:32:18;99641.13;;;18.52;35.97
9415;BME280;4746;35.664;139.738;2024-01-06T10:34:46;99641.34;;;18.46;36.18
9415;BME280;4746;35.664;139.738;2024-01-06T10:37:14;99638.03;;;18.41;36.44
9415;BME280;4746;35.664;139.738;2024-01-06T10:39:44;99636.56;;;18.34;36.24
9415;BME280;4746;35.664;139.738;2024-01-06T10:42:13;99633.97;;;18.32;36.80
9415;BME280;4746;35.664;139.738;2024-01-06T10:44:47;99629.94;;;18.24;36.72
9415;BME280;4746;35.664;139.738;2024-01-06T10:47:17;99630.06;;;18.21;36.92
9415;BME280;4746;35.664;139.738;2024-01-06T10:49:48;99627.59;;;18.16;36.50
9415;BME280;4746;35.664;139.738;2024-01-06T10:52:19;99630.50;;;18.06;36.95
9415;BME280;4746;35.664;139.738;2024-01-06T10:54:48;99629.81;;;18.01;36.73
9415;BME280;4746;35.664;139.738;2024-01-06T10:57:20;99635.50;;;18.12;37.16
9415;BME280;4746;35.664;139.738;2024-01-06T10:59:52;99625.94;;;18.14;37.18
9415;BME280;4746;35.664;139.738;2024-01-06T11:02:20;99618.28;;;18.11;37.46
9415;BME280;4746;35.664;139.738;2024-01-06T11:04:49;99630.38;;;18.10;37.07
9415;BME280;4746;35.664;139.738;2024-01-06T11:07:20;99623.47;;;18.11;36.88
9415;BME280;4746;35.664;139.738;2024-01-06T11:10:15;99628.53;;;18.14;36.38
9415;BME280;4746;35.664;139.738;2024-01-06T11:12:44;99622.75;;;18.06;36.87
9415;BME280;4746;35.664;139.738;2024-01-06T11:15:42;99617.47;;;18.09;36.78
9415;BME280;4746;35.664;139.738;2024-01-06T11:18:31;99616.78;;;18.04;37.00
9415;BME280;4746;35.664;139.738;2024-01-06T11:21:21;99616.09;;;17.99;36.85
9415;BME280;4746;35.664;139.738;2024-01-06T11:24:20;99615.34;;;17.94;37.01
9415;BME280;4746;35.664;139.738;2024-01-06T11:26:56;99608.59;;;17.90;37.23
9415;BME280;4746;35.664;139.738;2024-01-06T11:29:24;99609.59;;;17.86;37.51
9415;BME280;4746;35.664;139.738;2024-01-06T11:34:56;99605.28;;;17.85;37.03
9415;BME280;4746;35.664;139.738;2024-01-06T11:43:10;99602.00;;;17.80;37.59
9415;BME280;4746;35.664;139.738;2024-01-06T11:45:41;99603.91;;;17.75;37.63
9415;BME280;4746;35.664;139.738;2024-01-06T11:48:11;99609.09;;;17.74;37.86
9415;BME280;4746;35.664;139.738;2024-01-06T11:50:40;99615.22;;;17.71;37.47
9415;BME280;4746;35.664;139.738;2024-01-06T11:53:09;99605.88;;;17.67;37.61
9415;BME280;4746;35.664;139.738;2024-01-06T11:55:39;99617.19;;;17.65;37.40
9415;BME280;4746;35.664;139.738;2024-01-06T11:58:09;99611.25;;;17.61;37.50
9415;BME280;4746;35.664;139.738;2024-01-06T12:00:37;99611.38;;;17.57;37.92
9415;BME280;4746;35.664;139.738;2024-01-06T12:03:06;99609.66;;;17.57;37.80
9415;BME280;4746;35.664;139.738;2024-01-06T12:05:33;99602.75;;;17.56;37.67
9415;BME280;4746;35.664;139.738;2024-01-06T12:08:05;99609.66;;;17.57;37.58
9415;BME280;4746;35.664;139.738;2024-01-06T12:10:34;99607.31;;;17.50;37.59
9415;BME280;4746;35.664;139.738;2024-01-06T12:13:08;99608.19;;;17.49;36.88
9415;BME280;4746;35.664;139.738;2024-01-06T12:15:38;99614.44;;;17.42;37.23
9415;BME280;4746;35.664;139.738;2024-01-06T12:18:07;99623.16;;;17.40;37.08
9415;BME280;4746;35.664;139.738;2024-01-06T12:20:34;99616.34;;;17.36;36.95
9415;BME280;4746;35.664;139.738;2024-01-06T12:23:02;99618.94;;;17.36;37.01
9415;BME280;4746;35.664;139.738;2024-01-06T12:25:32;99612.09;;;17.35;36.50
9415;BME280;4746;35.664;139.738;2024-01-06T12:28:02;99608.69;;;17.33;36.89
9415;BME280;4746;35.664;139.738;2024-01-06T12:30:30;99611.31;;;17.31;37.00
9415;BME280;4746;35.664;139.738;2024-01-06T12:32:58;99610.56;;;17.28;36.79
9415;BME280;4746;35.664;139.738;2024-01-06T12:35:26;99622.66;;;17.26;36.55
9415;BME280;4746;35.664;139.738;2024-01-06T12:37:53;99620.19;;;17.23;36.42
9415;BME280;4746;35.664;139.738;2024-01-06T12:40:22;99621.06;;;17.22;36.71
9415;BME280;4746;35.664;139.738;2024-01-06T12:42:50;99624.53;;;17.21;36.30
9415;BME280;4746;35.664;139.738;2024-01-06T12:45:17;99629.81;;;17.18;36.16
9415;BME280;4746;35.664;139.738;2024-01-06T12:47:45;99620.44;;;17.14;35.74
9415;BME280;4746;35.664;139.738;2024-01-06T12:50:13;99617.94;;;17.11;35.62
9415;BME280;4746;35.664;139.738;2024-01-06T12:52:41;99620.66;;;17.06;35.17
9415;BME280;4746;35.664;139.738;2024-01-06T12:55:09;99620.81;;;17.00;34.70
9415;BME280;4746;35.664;139.738;2024-01-06T12:57:36;99619.22;;;16.96;33.80
9415;BME280;4746;35.664;139.738;2024-01-06T13:00:06;99619.41;;;16.89;34.04
9415;BME280;4746;35.664;139.738;2024-01-06T13:02:36;99620.50;;;16.82;33.38
9415;BME280;4746;35.664;139.738;2024-01-06T13:05:04;99614.69;;;16.74;33.36
9415;BME280;4746;35.664;139.738;2024-01-06T13:07:32;99619.19;;;16.66;33.31
9415;BME280;4746;35.664;139.738;2024-01-06T13:10:00;99615.09;;;16.59;33.22
9415;BME280;4746;35.664;139.738;2024-01-06T13:12:28;99627.31;;;16.53;33.22
9415;BME280;4746;35.664;139.738;2024-01-06T13:14:56;99616.38;;;16.43;33.60